sensor_id;sensor_type;location;lat;lon;timestamp;pressure;altitude;pressure_sealevel;temperature;humidity
43364;BME280;40636;52.424;-1.948;2023-08-17T00:00:35;100428.88;;;16.97;100.00
43364;BME280;40636;52.424;-1.948;2023-08-17T00:03:02;100430.00;;;16.96;100.00
43364;BME280;40636;52.424;-1.948;2023-08-17T00:05:29;100427.22;;;16.96;100.00
43364;BME280;40636;52.424;-1.948;2023-08-17T00:08:00;100419.19;;;16.94;100.00
43364;BME280;40636;52.424;-1.948;2023-08-17T00:10:30;100422.53;;;16.91;100.00
43364;BME280;40636;52.424;-1.948;2023-08-17T00:13:01;100422.53;;;16.91;100.00
43364;BME280;40636;52.424;-1.948;2023-08-17T00:15:30;100422.25;;;16.88;100.00
43364;BME280;40636;52.424;-1.948;2023-08-17T00:17:57;100418.66;;;16.87;100.00
43364;BME280;40636;52.424;-1.948;2023-08-17T00:20:24;100425.00;;;16.88;100.00
43364;BME280;40636;52.424;-1.948;2023-08-17T00:22:51;100420.03;;;16.85;100.00
43364;BME280;40636;52.424;-1.948;2023-08-17T00:25:20;100419.19;;;16.84;100.00
43364;BME280;40636;52.424;-1.948;2023-08-17T00:27:47;100418.38;;;16.84;100.00
43364;BME280;40636;52.424;-1.948;2023-08-17T00:30:17;100421.72;;;16.81;100.00
43364;BME280;40636;52.424;-1.948;2023-08-17T00:32:44;100421.72;;;16.76;100.00
43364;BME280;40636;52.424;-1.948;2023-08-17T00:35:10;100424.47;;;16.76;100.00
43364;BME280;40636;52.424;-1.948;2023-08-17T00:37:40;100423.13;;;16.73;100.00
43364;BME280;40636;52.424;-1.948;2023-08-17T00:40:08;100420.34;;;16.73;100.00
43364;BME280;40636;52.424;-1.948;2023-08-17T00:42:35;100418.91;;;16.70;100.00
43364;BME280;40636;52.424;-1.948;2023-08-17T00:45:02;100417.25;;;16.69;100.00
43364;BME280;40636;52.424;-1.948;2023-08-17T00:47:34;100414.50;;;16.64;100.00
43364;BME280;40636;52.424;-1.948;2023-08-17T00:50:01;100409.50;;;16.71;100.00
43364;BME280;40636;52.424;-1.948;2023-08-17T00:52:28;100409.25;;;16.78;100.00
43364;BME280;40636;52.424;-1.948;2023-08-17T00:55:00;100419.50;;;16.78;100.00
43364;BME280;40636;52.424;-1.948;2023-08-17T00:57:28;100411.72;;;16.69;100.00
43364;BME280;40636;52.424;-1.948;2023-08-17T00:59:55;100409.25;;;16.68;100.00
43364;BME280;40636;52.424;-1.948;2023-08-17T01:02:31;100405.63;;;16.67;100.00
43364;BME280;40636;52.424;-1.948;2023-08-17T01:05:00;100412.28;;;16.71;100.00
43364;BME280;40636;52.424;-1.948;2023-08-17T01:07:30;100422.28;;;16.72;100.00
43364;BME280;40636;52.424;-1.948;2023-08-17T01:10:01;100415.06;;;16.71;100.00
43364;BME280;40636;52.424;-1.948;2023-08-17T01:12:36;100415.91;;;16.72;100.00
43364;BME280;40636;52.424;-1.948;2023-08-17T01:15:34;100411.47;;;16.76;100.00
43364;BME280;40636;52.424;-1.948;2023-08-17T01:18:17;100412.31;;;16.77;100.00
43364;BME280;40636;52.424;-1.948;2023-08-17T01:20:49;100414.50;;;16.74;100.00
43364;BME280;40636;52.424;-1.948;2023-08-17T01:23:17;100410.09;;;16.73;100.00
43364;BME280;40636;52.424;-1.948;2023-08-17T01:25:47;100410.06;;;16.68;100.00
43364;BME280;40636;52.424;-1.948;2023-08-17T01:28:15;100413.38;;;16.65;100.00
43364;BME280;40636;52.424;-1.948;2023-08-17T01:31:02;100406.72;;;16.66;100.00
43364;BME280;40636;52.424;-1.948;2023-08-17T01:33:42;100402.31;;;16.60;100.00
43364;BME280;40636;52.424;-1.948;2023-08-17T01:36:21;100409.22;;;16.58;100.00
43364;BME280;40636;52.424;-1.948;2023-08-17T01:38:51;100407.28;;;16.53;100.00
43364;BME280;40636;52.424;-1.948;2023-08-17T01:41:20;100405.38;;;16.48;100.00
43364;BME280;40636;52.424;-1.948;2023-08-17T01:43:47;100402.34;;;16.50;100.00
43364;BME280;40636;52.424;-1.948;2023-08-17T01:46:16;100405.94;;;16.45;100.00
43364;BME280;40636;52.424;-1.948;2023-08-17T01:48:44;100407.03;;;16.39;100.00
43364;BME280;40636;52.424;-1.948;2023-08-17T01:51:17;100407.63;;;16.36;100.00
43364;BME280;40636;52.424;-1.948;2023-08-17T01:53:47;100417.88;;;16.36;100.00
43364;BME280;40636;52.424;-1.948;2023-08-17T01:56:13;100411.50;;;16.35;100.00
43364;BME280;40636;52.424;-1.948;2023-08-17T01:58:41;100411.75;;;16.29;100.00
43364;BME280;40636;52.424;-1.948;2023-08-17T02:01:08;100410.66;;;16.24;100.00
43364;BME280;40636;52.424;-1.948;2023-08-17T02:03:35;100419.53;;;16.27;100.00
43364;BME280;40636;52.424;-1.948;2023-08-17T02:06:02;100417.00;;;16.25;100.00
43364;BME280;40636;52.424;-1.948;2023-08-17T02:08:30;100415.91;;;16.21;100.00
43364;BME280;40636;52.424;-1.948;2023-08-17T02:11:03;100414.53;;;16.23;100.00
43364;BME280;40636;52.424;-1.948;2023-08-17T02:13:30;100418.41;;;16.22;100.00
43364;BME280;40636;52.424;-1.948;2023-08-17T02:15:57;100420.91;;;16.19;100.00
43364;BME280;40636;52.424;-1.948;2023-08-17T02:18:24;100422.00;;;16.18;100.00
43364;BME280;40636;52.424;-1.948;2023-08-17T02:20:52;100427.25;;;16.19;100.00
43364;BME280;40636;52.424;-1.948;2023-08-17T02:23:19;100426.72;;;16.17;100.00
43364;BME280;40636;52.424;-1.948;2023-08-17T02:25:45;100422.84;;;16.18;100.00
43364;BME280;40636;52.424;-1.948;2023-08-17T02:28:12;100426.16;;;16.20;100.00
43364;BME280;40636;52.424;-1.948;2023-08-17T02:30:43;100424.22;;;16.16;100.00
43364;BME280;40636;52.424;-1.948;2023-08-17T02:33:11;100426.72;;;16.17;100.00
43364;BME280;40636;52.424;-1.948;2023-08-17T02:35:39;100426.16;;;16.20;100.00
43364;BME280;40636;52.424;-1.948;2023-08-17T02:38:06;100426.97;;;16.21;100.00
43364;BME280;40636;52.424;-1.948;2023-08-17T02:40:33;100433.91;;;16.18;100.00
43364;BME280;40636;52.424;-1.948;2023-08-17T02:43:00;100422.84;;;16.18;100.00
43364;BME280;40636;52.424;-1.948;2023-08-17T02:45:30;100431.69;;;16.15;100.00
43364;BME280;40636;52.424;-1.948;2023-08-17T02:47:56;100429.22;;;16.19;100.00
43364;BME280;40636;52.424;-1.948;2023-08-17T02:50:24;100428.38;;;16.18;100.00
43364;BME280;40636;52.424;-1.948;2023-08-17T02:52:51;100418.97;;;16.19;100.00
43364;BME280;40636;52.424;-1.948;2023-08-17T02:55:18;100424.50;;;16.19;100.00
43364;BME280;40636;52.424;-1.948;2023-08-17T02:57:45;100430.03;;;16.19;100.00
43364;BME280;40636;52.424;-1.948;2023-08-17T03:00:12;100424.50;;;16.14;100.00
43364;BME280;40636;52.424;-1.948;2023-08-17T03:02:41;100425.59;;;16.13;100.00
43364;BME280;40636;52.424;-1.948;2023-08-17T03:05:08;100428.38;;;16.13;100.00
43364;BME280;40636;52.424;-1.948;2023-08-17T03:07:35;100418.97;;;16.14;100.00
43364;BME280;40636;52.424;-1.948;2023-08-17T03:10:06;100425.59;;;16.13;100.00
43364;BME280;40636;52.424;-1.948;2023-08-17T03:12:33;100419.78;;;16.15;100.00
43364;BME280;40636;52.424;-1.948;2023-08-17T03:15:01;100422.28;;;16.11;100.00
43364;BME280;40636;52.424;-1.948;2023-08-17T03:17:28;100424.22;;;16.11;100.00
43364;BME280;40636;52.424;-1.948;2023-08-17T03:19:55;100421.19;;;16.17;100.00
43364;BME280;40636;52.424;-1.948;2023-08-17T03:22:25;100425.03;;;16.16;100.00
43364;BME280;40636;52.424;-1.948;2023-08-17T03:24:55;100424.50;;;16.09;100.00
43364;BME280;40636;52.424;-1.948;2023-08-17T03:27:22;100422.28;;;16.11;100.00
43364;BME280;40636;52.424;-1.948;2023-08-17T03:29:50;100422.28;;;16.11;100.00
43364;BME280;40636;52.424;-1.948;2023-08-17T03:32:17;100426.16;;;16.10;100.00
43364;BME280;40636;52.424;-1.948;2023-08-17T03:34:44;100412.84;;;16.07;100.00
43364;BME280;40636;52.424;-1.948;2023-08-17T03:37:11;100418.38;;;16.02;100.00
43364;BME280;40636;52.424;-1.948;2023-08-17T03:39:38;100427.25;;;16.04;100.00
43364;BME280;40636;52.424;-1.948;2023-08-17T03:42:06;100417.00;;;16.00;100.00
43364;BME280;40636;52.424;-1.948;2023-08-17T03:44:34;100413.41;;;15.99;100.00
43364;BME280;40636;52.424;-1.948;2023-08-17T03:47:00;100417.56;;;15.96;100.00
43364;BME280;40636;52.424;-1.948;2023-08-17T03:49:27;100412.56;;;15.93;100.00
43364;BME280;40636;52.424;-1.948;2023-08-17T03:51:55;100417.00;;;15.94;100.00
43364;BME280;40636;52.424;-1.948;2023-08-17T03:54:22;100423.63;;;15.93;100.00
43364;BME280;40636;52.424;-1.948;2023-08-17T03:56:48;100418.09;;;15.98;100.00
43364;BME280;40636;52.424;-1.948;2023-08-17T03:59:15;100411.19;;;15.96;100.00
43364;BME280;40636;52.424;-1.948;2023-08-17T04:01:42;100410.91;;;15.92;100.00
43364;BME280;40636;52.424;-1.948;2023-08-17T04:04:12;100402.88;;;15.96;100.00
43364;BME280;40636;52.424;-1.948;2023-08-17T04:06:43;100395.13;;;15.98;100.00
43364;BME280;40636;52.424;-1.948;2023-08-17T04:09:11;100392.34;;;15.93;100.00
43364;BME280;40636;52.424;-1.948;2023-08-17T04:11:39;100394.00;;;15.94;100.00
43364;BME280;40636;52.424;-1.948;2023-08-17T04:14:06;100397.63;;;16.00;100.00
43364;BME280;40636;52.424;-1.948;2023-08-17T04:16:33;100394.28;;;15.97;100.00
43364;BME280;40636;52.424;-1.948;2023-08-17T04:19:00;100402.06;;;16.06;100.00
43364;BME280;40636;52.424;-1.948;2023-08-17T04:21:26;100399.56;;;16.04;100.00
43364;BME280;40636;52.424;-1.948;2023-08-17T04:23:57;100399.53;;;15.94;100.00
43364;BME280;40636;52.424;-1.948;2023-08-17T04:26:25;100402.88;;;15.96;100.00
43364;BME280;40636;52.424;-1.948;2023-08-17T04:28:52;100402.31;;;15.94;100.00
43364;BME280;40636;52.424;-1.948;2023-08-17T04:31:19;100405.09;;;15.89;100.00
43364;BME280;40636;52.424;-1.948;2023-08-17T04:33:46;100415.59;;;15.87;100.00
43364;BME280;40636;52.424;-1.948;2023-08-17T04:36:13;100413.66;;;15.87;100.00
43364;BME280;40636;52.424;-1.948;2023-08-17T04:38:40;100412.84;;;15.92;100.00
43364;BME280;40636;52.424;-1.948;2023-08-17T04:41:08;100407.31;;;15.87;100.00
43364;BME280;40636;52.424;-1.948;2023-08-17T04:43:35;100408.94;;;15.72;100.00
43364;BME280;40636;52.424;-1.948;2023-08-17T04:46:02;100405.66;;;15.81;100.00
43364;BME280;40636;52.424;-1.948;2023-08-17T04:48:30;100416.69;;;15.76;100.00
43364;BME280;40636;52.424;-1.948;2023-08-17T04:51:00;100410.06;;;15.77;100.00
43364;BME280;40636;52.424;-1.948;2023-08-17T04:53:31;100409.22;;;15.76;100.00
43364;BME280;40636;52.424;-1.948;2023-08-17T04:55:59;100412.81;;;15.71;100.00
43364;BME280;40636;52.424;-1.948;2023-08-17T04:58:25;100408.13;;;15.72;100.00
43364;BME280;40636;52.424;-1.948;2023-08-17T05:00:52;100412.25;;;15.69;100.00
43364;BME280;40636;52.424;-1.948;2023-08-17T05:03:19;100404.47;;;15.66;100.00
43364;BME280;40636;52.424;-1.948;2023-08-17T05:05:59;100406.16;;;15.67;100.00
43364;BME280;40636;52.424;-1.948;2023-08-17T05:08:29;100410.00;;;15.66;100.00
43364;BME280;40636;52.424;-1.948;2023-08-17T05:10:56;100412.75;;;15.61;100.00
43364;BME280;40636;52.424;-1.948;2023-08-17T05:13:23;100411.63;;;15.57;100.00
43364;BME280;40636;52.424;-1.948;2023-08-17T05:15:50;100407.78;;;15.58;100.00
43364;BME280;40636;52.424;-1.948;2023-08-17T05:18:17;100402.47;;;15.52;100.00
43364;BME280;40636;52.424;-1.948;2023-08-17T05:20:44;100406.06;;;15.47;100.00
43364;BME280;40636;52.424;-1.948;2023-08-17T05:23:10;100405.25;;;15.52;100.00
43364;BME280;40636;52.424;-1.948;2023-08-17T05:25:37;100408.84;;;15.52;100.00
43364;BME280;40636;52.424;-1.948;2023-08-17T05:28:07;100408.84;;;15.47;100.00
43364;BME280;40636;52.424;-1.948;2023-08-17T05:30:34;100417.13;;;15.47;100.00
43364;BME280;40636;52.424;-1.948;2023-08-17T05:33:01;100418.78;;;15.48;100.00
43364;BME280;40636;52.424;-1.948;2023-08-17T05:35:28;100421.56;;;15.53;100.00
43364;BME280;40636;52.424;-1.948;2023-08-17T05:37:54;100418.25;;;15.51;100.00
43364;BME280;40636;52.424;-1.948;2023-08-17T05:40:21;100420.47;;;15.54;100.00
43364;BME280;40636;52.424;-1.948;2023-08-17T05:42:48;100417.97;;;15.47;100.00
43364;BME280;40636;52.424;-1.948;2023-08-17T05:45:14;100414.66;;;15.56;100.00
43364;BME280;40636;52.424;-1.948;2023-08-17T05:47:42;100417.44;;;15.56;100.00
43364;BME280;40636;52.424;-1.948;2023-08-17T05:50:12;100413.84;;;15.60;100.00
43364;BME280;40636;52.424;-1.948;2023-08-17T05:52:40;100415.00;;;15.69;100.00
43364;BME280;40636;52.424;-1.948;2023-08-17T05:55:07;100414.47;;;15.72;100.00
43364;BME280;40636;52.424;-1.948;2023-08-17T05:57:34;100408.94;;;15.72;100.00
43364;BME280;40636;52.424;-1.948;2023-08-17T06:00:01;100428.56;;;15.71;100.00
43364;BME280;40636;52.424;-1.948;2023-08-17T06:02:27;100420.31;;;15.76;100.00
43364;BME280;40636;52.424;-1.948;2023-08-17T06:04:54;100425.25;;;15.74;100.00
43364;BME280;40636;52.424;-1.948;2023-08-17T06:07:21;100418.38;;;15.82;100.00
43364;BME280;40636;52.424;-1.948;2023-08-17T06:09:48;100418.66;;;15.85;100.00
43364;BME280;40636;52.424;-1.948;2023-08-17T06:12:14;100419.75;;;15.89;100.00
43364;BME280;40636;52.424;-1.948;2023-08-17T06:14:41;100414.78;;;15.91;100.00
43364;BME280;40636;52.424;-1.948;2023-08-17T06:17:09;100420.03;;;15.98;100.00
43364;BME280;40636;52.424;-1.948;2023-08-17T06:19:35;100419.22;;;16.03;100.00
43364;BME280;40636;52.424;-1.948;2023-08-17T06:22:02;100424.22;;;16.06;100.00
43364;BME280;40636;52.424;-1.948;2023-08-17T06:24:29;100431.13;;;16.03;100.00
43364;BME280;40636;52.424;-1.948;2023-08-17T06:26:55;100432.22;;;16.07;100.00
43364;BME280;40636;52.424;-1.948;2023-08-17T06:29:22;100431.97;;;16.04;100.00
43364;BME280;40636;52.424;-1.948;2023-08-17T06:31:49;100435.00;;;16.12;100.00
43364;BME280;40636;52.424;-1.948;2023-08-17T06:34:16;100440.56;;;16.17;100.00
43364;BME280;40636;52.424;-1.948;2023-08-17T06:37:00;100436.41;;;16.25;100.00
43364;BME280;40636;52.424;-1.948;2023-08-17T06:39:28;100436.41;;;16.30;100.00
43364;BME280;40636;52.424;-1.948;2023-08-17T06:41:55;100432.25;;;16.33;100.00
43364;BME280;40636;52.424;-1.948;2023-08-17T06:44:21;100438.38;;;16.40;100.00
43364;BME280;40636;52.424;-1.948;2023-08-17T06:46:48;100433.38;;;16.42;100.00
43364;BME280;40636;52.424;-1.948;2023-08-17T06:49:15;100430.06;;;16.40;100.00
43364;BME280;40636;52.424;-1.948;2023-08-17T06:51:43;100433.66;;;16.45;100.00
43364;BME280;40636;52.424;-1.948;2023-08-17T06:54:14;100439.72;;;16.47;100.00
43364;BME280;40636;52.424;-1.948;2023-08-17T06:56:41;100444.97;;;16.44;100.00
43364;BME280;40636;52.424;-1.948;2023-08-17T06:59:08;100444.72;;;16.45;100.00
43364;BME280;40636;52.424;-1.948;2023-08-17T07:01:37;100435.59;;;16.50;100.00
43364;BME280;40636;52.424;-1.948;2023-08-17T07:04:06;100431.97;;;16.55;100.00
43364;BME280;40636;52.424;-1.948;2023-08-17T07:06:34;100436.41;;;16.51;100.00
43364;BME280;40636;52.424;-1.948;2023-08-17T07:09:01;100435.00;;;16.53;100.00
43364;BME280;40636;52.424;-1.948;2023-08-17T07:11:30;100437.25;;;16.41;100.00
43364;BME280;40636;52.424;-1.948;2023-08-17T07:13:58;100433.91;;;16.29;100.00
43364;BME280;40636;52.424;-1.948;2023-08-17T07:16:25;100431.44;;;16.37;100.00
43364;BME280;40636;52.424;-1.948;2023-08-17T07:18:52;100437.78;;;16.43;100.00
43364;BME280;40636;52.424;-1.948;2023-08-17T07:21:19;100419.50;;;16.47;100.00
43364;BME280;40636;52.424;-1.948;2023-08-17T07:23:45;100428.94;;;16.46;100.00
43364;BME280;40636;52.424;-1.948;2023-08-17T07:26:13;100428.38;;;16.59;100.00
43364;BME280;40636;52.424;-1.948;2023-08-17T07:28:40;100429.19;;;16.65;100.00
43364;BME280;40636;52.424;-1.948;2023-08-17T07:31:07;100424.50;;;16.55;100.00
43364;BME280;40636;52.424;-1.948;2023-08-17T07:33:35;100424.47;;;16.60;100.00
43364;BME280;40636;52.424;-1.948;2023-08-17T07:36:02;100417.84;;;16.56;100.00
43364;BME280;40636;52.424;-1.948;2023-08-17T07:38:29;100414.78;;;16.58;100.00
43364;BME280;40636;52.424;-1.948;2023-08-17T07:40:56;100413.38;;;16.65;100.00
43364;BME280;40636;52.424;-1.948;2023-08-17T07:43:24;100421.44;;;16.52;100.00
43364;BME280;40636;52.424;-1.948;2023-08-17T07:45:55;100418.94;;;16.65;100.00
43364;BME280;40636;52.424;-1.948;2023-08-17T07:48:22;100413.97;;;16.78;100.00
43364;BME280;40636;52.424;-1.948;2023-08-17T07:50:52;100419.50;;;16.62;100.00
43364;BME280;40636;52.424;-1.948;2023-08-17T07:53:19;100413.97;;;16.72;100.00
43364;BME280;40636;52.424;-1.948;2023-08-17T07:55:50;100409.78;;;16.80;100.00
43364;BME280;40636;52.424;-1.948;2023-08-17T07:58:21;100413.66;;;16.69;100.00
43364;BME280;40636;52.424;-1.948;2023-08-17T08:01:02;100417.56;;;16.73;100.00
43364;BME280;40636;52.424;-1.948;2023-08-17T08:03:31;100415.63;;;16.63;100.00
43364;BME280;40636;52.424;-1.948;2023-08-17T08:05:57;100421.16;;;16.73;100.00
43364;BME280;40636;52.424;-1.948;2023-08-17T08:08:25;100408.94;;;16.80;100.00
43364;BME280;40636;52.424;-1.948;2023-08-17T08:10:53;100413.09;;;16.87;100.00
43364;BME280;40636;52.424;-1.948;2023-08-17T08:13:20;100411.66;;;17.05;100.00
43364;BME280;40636;52.424;-1.948;2023-08-17T08:15:47;100420.25;;;17.09;100.00
43364;BME280;40636;52.424;-1.948;2023-08-17T08:18:15;100415.31;;;16.95;100.00
43364;BME280;40636;52.424;-1.948;2023-08-17T08:20:42;100413.28;;;17.11;100.00
43364;BME280;40636;52.424;-1.948;2023-08-17T08:23:09;100409.91;;;17.30;100.00
43364;BME280;40636;52.424;-1.948;2023-08-17T08:25:35;100407.75;;;17.21;100.00
43364;BME280;40636;52.424;-1.948;2023-08-17T08:28:02;100406.28;;;17.29;100.00
43364;BME280;40636;52.424;-1.948;2023-08-17T08:30:29;100409.88;;;17.35;100.00
43364;BME280;40636;52.424;-1.948;2023-08-17T08:32:57;100405.38;;;17.49;100.00
43364;BME280;40636;52.424;-1.948;2023-08-17T08:35:24;100406.25;;;17.44;100.00
43364;BME280;40636;52.424;-1.948;2023-08-17T08:37:52;100407.06;;;17.45;100.00
43364;BME280;40636;52.424;-1.948;2023-08-17T08:40:21;100414.53;;;17.49;100.00
43364;BME280;40636;52.424;-1.948;2023-08-17T08:42:53;100420.03;;;17.60;100.00
43364;BME280;40636;52.424;-1.948;2023-08-17T08:45:21;100408.34;;;17.68;100.00
43364;BME280;40636;52.424;-1.948;2023-08-17T08:47:49;100411.41;;;17.61;100.00
43364;BME280;40636;52.424;-1.948;2023-08-17T08:50:19;100404.13;;;17.81;100.00
43364;BME280;40636;52.424;-1.948;2023-08-17T08:52:59;100404.97;;;17.81;100.00
43364;BME280;40636;52.424;-1.948;2023-08-17T08:55:34;100413.88;;;17.68;100.00
43364;BME280;40636;52.424;-1.948;2023-08-17T08:58:04;100409.66;;;17.86;100.00
43364;BME280;40636;52.424;-1.948;2023-08-17T09:00:34;100410.72;;;17.90;100.00
43364;BME280;40636;52.424;-1.948;2023-08-17T09:03:02;100410.16;;;17.88;100.00
43364;BME280;40636;52.424;-1.948;2023-08-17T09:05:31;100406.22;;;17.94;100.00
43364;BME280;40636;52.424;-1.948;2023-08-17T09:11:42;100401.06;;;18.21;100.00
43364;BME280;40636;52.424;-1.948;2023-08-17T09:14:29;100400.91;;;18.37;100.00
43364;BME280;40636;52.424;-1.948;2023-08-17T09:17:26;100392.56;;;18.66;100.00
43364;BME280;40636;52.424;-1.948;2023-08-17T09:19:54;100392.84;;;18.93;100.00
43364;BME280;40636;52.424;-1.948;2023-08-17T09:22:25;100387.41;;;19.07;100.00
43364;BME280;40636;52.424;-1.948;2023-08-17T09:24:52;100385.50;;;19.02;100.00
43364;BME280;40636;52.424;-1.948;2023-08-17T09:27:20;100393.81;;;19.08;100.00
43364;BME280;40636;52.424;-1.948;2023-08-17T09:29:47;100384.09;;;19.05;100.00
43364;BME280;40636;52.424;-1.948;2023-08-17T09:32:19;100389.44;;;19.01;100.00
43364;BME280;40636;52.424;-1.948;2023-08-17T09:35:07;100383.63;;;18.98;100.00
43364;BME280;40636;52.424;-1.948;2023-08-17T09:41:59;100386.31;;;19.08;100.00
43364;BME280;40636;52.424;-1.948;2023-08-17T09:44:33;100377.84;;;19.37;100.00
43364;BME280;40636;52.424;-1.948;2023-08-17T09:47:00;100386.19;;;19.61;100.00
43364;BME280;40636;52.424;-1.948;2023-08-17T09:49:30;100383.44;;;19.56;100.00
43364;BME280;40636;52.424;-1.948;2023-08-17T09:52:04;100379.00;;;19.55;100.00
43364;BME280;40636;52.424;-1.948;2023-08-17T09:54:33;100382.22;;;19.43;100.00
43364;BME280;40636;52.424;-1.948;2023-08-17T09:57:01;100390.47;;;19.30;100.00
43364;BME280;40636;52.424;-1.948;2023-08-17T09:59:28;100392.75;;;19.27;100.00
43364;BME280;40636;52.424;-1.948;2023-08-17T10:01:56;100385.00;;;19.43;100.00
43364;BME280;40636;52.424;-1.948;2023-08-17T10:04:25;100380.53;;;19.66;100.00
43364;BME280;40636;52.424;-1.948;2023-08-17T10:07:03;100384.16;;;20.05;100.00
43364;BME280;40636;52.424;-1.948;2023-08-17T10:09:38;100371.91;;;20.19;100.00
43364;BME280;40636;52.424;-1.948;2023-08-17T10:12:10;100372.25;;;19.99;100.00
43364;BME280;40636;52.424;-1.948;2023-08-17T10:14:39;100373.16;;;19.94;100.00
43364;BME280;40636;52.424;-1.948;2023-08-17T10:17:16;100365.44;;;20.24;100.00
43364;BME280;40636;52.424;-1.948;2023-08-17T10:19:49;100366.47;;;20.28;100.00
43364;BME280;40636;52.424;-1.948;2023-08-17T10:22:33;100366.00;;;20.40;100.00
43364;BME280;40636;52.424;-1.948;2023-08-17T10:25:03;100369.88;;;20.25;100.00
43364;BME280;40636;52.424;-1.948;2023-08-17T10:27:32;100375.75;;;20.23;100.00
43364;BME280;40636;52.424;-1.948;2023-08-17T10:30:01;100365.19;;;20.20;100.00
43364;BME280;40636;52.424;-1.948;2023-08-17T10:32:28;100365.66;;;20.27;100.00
43364;BME280;40636;52.424;-1.948;2023-08-17T10:34:56;100363.66;;;20.14;100.00
43364;BME280;40636;52.424;-1.948;2023-08-17T10:37:23;100365.69;;;20.09;100.00
43364;BME280;40636;52.424;-1.948;2023-08-17T10:39:51;100365.47;;;20.05;100.00
43364;BME280;40636;52.424;-1.948;2023-08-17T10:42:35;100368.91;;;20.16;100.00
43364;BME280;40636;52.424;-1.948;2023-08-17T10:50:35;100357.38;;;20.55;100.00
43364;BME280;40636;52.424;-1.948;2023-08-17T10:53:11;100373.59;;;20.34;100.00
43364;BME280;40636;52.424;-1.948;2023-08-17T10:55:44;100359.25;;;20.27;100.00
43364;BME280;40636;52.424;-1.948;2023-08-17T10:58:12;100361.53;;;20.39;100.00
43364;BME280;40636;52.424;-1.948;2023-08-17T11:00:42;100367.50;;;20.51;100.00
43364;BME280;40636;52.424;-1.948;2023-08-17T11:03:18;100371.75;;;20.62;100.00
43364;BME280;40636;52.424;-1.948;2023-08-17T11:05:49;100359.59;;;20.86;100.00
43364;BME280;40636;52.424;-1.948;2023-08-17T11:08:28;100363.41;;;20.90;100.00
43364;BME280;40636;52.424;-1.948;2023-08-17T11:11:13;100356.16;;;20.89;100.00
43364;BME280;40636;52.424;-1.948;2023-08-17T11:13:42;100362.97;;;20.55;100.00
43364;BME280;40636;52.424;-1.948;2023-08-17T11:16:11;100362.91;;;20.41;100.00
43364;BME280;40636;52.424;-1.948;2023-08-17T11:18:43;100361.41;;;20.49;100.00
43364;BME280;40636;52.424;-1.948;2023-08-17T11:21:17;100357.06;;;20.57;100.00
43364;BME280;40636;52.424;-1.948;2023-08-17T11:23:46;100352.53;;;20.74;100.00
43364;BME280;40636;52.424;-1.948;2023-08-17T11:26:16;100357.31;;;20.88;100.00
43364;BME280;40636;52.424;-1.948;2023-08-17T11:28:43;100365.78;;;20.83;100.00
43364;BME280;40636;52.424;-1.948;2023-08-17T11:31:13;100355.88;;;20.90;100.00
43364;BME280;40636;52.424;-1.948;2023-08-17T11:33:45;100357.72;;;20.95;100.00
43364;BME280;40636;52.424;-1.948;2023-08-17T11:36:14;100356.69;;;21.18;100.00
43364;BME280;40636;52.424;-1.948;2023-08-17T11:38:44;100357.28;;;21.29;100.00
43364;BME280;40636;52.424;-1.948;2023-08-17T11:41:11;100352.13;;;21.22;100.00
43364;BME280;40636;52.424;-1.948;2023-08-17T11:43:42;100354.00;;;20.99;100.00
43364;BME280;40636;52.424;-1.948;2023-08-17T11:46:09;100353.34;;;21.16;100.00
43364;BME280;40636;52.424;-1.948;2023-08-17T11:48:36;100351.44;;;21.03;100.00
43364;BME280;40636;52.424;-1.948;2023-08-17T11:51:03;100342.41;;;21.34;100.00
43364;BME280;40636;52.424;-1.948;2023-08-17T11:53:35;100338.81;;;21.69;100.00
43364;BME280;40636;52.424;-1.948;2023-08-17T11:56:02;100348.75;;;21.62;100.00
43364;BME280;40636;52.424;-1.948;2023-08-17T11:58:43;100340.97;;;21.36;100.00
43364;BME280;40636;52.424;-1.948;2023-08-17T12:01:12;100348.53;;;21.22;100.00
43364;BME280;40636;52.424;-1.948;2023-08-17T12:03:40;100344.06;;;21.35;100.00
43364;BME280;40636;52.424;-1.948;2023-08-17T12:06:09;100329.84;;;21.59;100.00
43364;BME280;40636;52.424;-1.948;2023-08-17T12:08:36;100328.53;;;21.78;100.00
43364;BME280;40636;52.424;-1.948;2023-08-17T12:11:06;100330.31;;;21.74;100.00
43364;BME280;40636;52.424;-1.948;2023-08-17T12:13:33;100327.75;;;21.64;100.00
43364;BME280;40636;52.424;-1.948;2023-08-17T12:16:02;100333.59;;;21.54;100.00
43364;BME280;40636;52.424;-1.948;2023-08-17T12:18:33;100321.16;;;21.60;100.00
43364;BME280;40636;52.424;-1.948;2023-08-17T12:21:01;100319.88;;;21.44;100.00
43364;BME280;40636;52.424;-1.948;2023-08-17T12:23:28;100310.22;;;21.50;100.00
43364;BME280;40636;52.424;-1.948;2023-08-17T12:25:55;100308.72;;;21.66;100.00
43364;BME280;40636;52.424;-1.948;2023-08-17T12:28:23;100314.97;;;21.86;100.00
43364;BME280;40636;52.424;-1.948;2023-08-17T12:31:01;100310.09;;;21.55;100.00
43364;BME280;40636;52.424;-1.948;2023-08-17T12:33:32;100303.66;;;21.68;100.00
43364;BME280;40636;52.424;-1.948;2023-08-17T12:35:59;100298.19;;;21.63;100.00
43364;BME280;40636;52.424;-1.948;2023-08-17T12:38:26;100299.34;;;21.62;100.00
43364;BME280;40636;52.424;-1.948;2023-08-17T12:41:10;100287.56;;;21.51;100.00
43364;BME280;40636;52.424;-1.948;2023-08-17T12:43:38;100275.31;;;21.84;100.00
43364;BME280;40636;52.424;-1.948;2023-08-17T12:46:09;100265.13;;;22.10;100.00
43364;BME280;40636;52.424;-1.948;2023-08-17T12:48:38;100258.38;;;22.34;100.00
43364;BME280;40636;52.424;-1.948;2023-08-17T12:51:09;100264.25;;;22.54;100.00
43364;BME280;40636;52.424;-1.948;2023-08-17T12:53:41;100274.31;;;22.64;100.00